Maersk Dortmund — 9HZX7 — position and weather

sailwx.info

Track history (hours):
 
Tides and Currents Weather Stations Pressure Air Temp Water Temp Dewpoint Dewpoint Depression Visibility Wind Speed Wind Dir Waves Ship Positions

Maersk Dortmund

Last reported at 2018-Jun-25 14:58 UTC. Time now 2018-Jun-25 15:19 UTC.
Position N 51°55' E 003°31'.

Type: Ship (hazmat cat A). MMSI: 2157100.

Date/timePositionNaut miles runAvg speedWind from/ knotsBaromVisibWave heightAir tempDewpointWater temp
2018-Jun-25 14:58N 51°55' E 003°31'0 0.0
2018-Jun-25 14:28N 51°55' E 003°31'0 0.0
2018-Jun-25 13:58N 51°55' E 003°31'0 0.0
2018-Jun-25 13:28N 51°55' E 003°31'0 0.0
2018-Jun-25 12:55N 51°55' E 003°31'0 0.0
2018-Jun-25 12:13N 51°55' E 003°31'0 0.0
2018-Jun-25 11:58N 51°55' E 003°31'0 0.0
2018-Jun-25 11:10N 51°55' E 003°31'0 0.1
2018-Jun-25 10:52N 51°55' E 003°31'0 0.2
2018-Jun-25 10:16N 51°55' E 003°31'0 0.3
2018-Jun-25 09:52N 51°55' E 003°30'0 0.1
2018-Jun-25 09:28N 51°55' E 003°30'0 0.1
2018-Jun-25 08:58N 51°55' E 003°30'0 0.0
2018-Jun-25 08:28N 51°55' E 003°30'0 0.0
2018-Jun-25 07:49N 51°55' E 003°30'0 0.0
2018-Jun-25 07:28N 51°55' E 003°30'0 0.0
2018-Jun-25 06:58N 51°55' E 003°30'0 0.0
2018-Jun-25 06:28N 51°55' E 003°30'0 0.0
2018-Jun-25 05:58N 51°55' E 003°30'0 0.0
2018-Jun-25 05:25N 51°55' E 003°30'0 0.0
2018-Jun-25 04:46N 51°55' E 003°30'0 0.0
2018-Jun-25 04:28N 51°55' E 003°30'0 0.0
2018-Jun-25 03:49N 51°55' E 003°30'0 0.3
2018-Jun-25 03:28N 51°55' E 003°31'0 0.2
2018-Jun-25 02:49N 51°55' E 003°31'0 0.0
2018-Jun-25 02:13N 51°55' E 003°31'0 0.1
2018-Jun-25 01:58N 51°55' E 003°31'0 0.0
2018-Jun-25 01:25N 51°55' E 003°31'0 0.0
2018-Jun-25 00:52N 51°55' E 003°31'0 0.0
2018-Jun-25 00:28N 51°55' E 003°31'0 0.0
2018-Jun-24 23:55N 51°55' E 003°31'0 0.0
2018-Jun-24 23:25N 51°55' E 003°31'0 0.0
2018-Jun-24 22:55N 51°55' E 003°31'0 0.2
2018-Jun-24 22:19N 51°55' E 003°31'0 0.2
2018-Jun-24 21:58N 51°55' E 003°31'0 0.1
2018-Jun-24 21:19N 51°55' E 003°30'0 0.1
2018-Jun-24 20:58N 51°55' E 003°30'0 0.0
2018-Jun-24 20:22N 51°55' E 003°30'0 0.0
2018-Jun-24 19:49N 51°55' E 003°30'0 0.0
2018-Jun-24 19:25N 51°55' E 003°30'0 0.0
2018-Jun-24 18:52N 51°55' E 003°30'0 0.0
2018-Jun-24 18:28N 51°55' E 003°30'0 0.0
2018-Jun-24 17:46N 51°55' E 003°30'0 0.0
2018-Jun-24 17:28N 51°55' E 003°30'0 0.0
2018-Jun-24 16:58N 51°55' E 003°30'0 0.0
2018-Jun-24 16:25N 51°55' E 003°30'0 0.0
2018-Jun-24 15:58N 51°55' E 003°30'0 0.1
2018-Jun-24 15:25N 51°55' E 003°30'0 0.0
2018-Jun-24 14:52N 51°55' E 003°30'0 0.2
2018-Jun-24 14:19N 51°55' E 003°31'0 0.2
2018-Jun-24 13:52N 51°55' E 003°31'0 0.0
2018-Jun-24 13:25N 51°55' E 003°31'0 0.0
2018-Jun-24 12:58N 51°55' E 003°31'0 0.0
2018-Jun-24 12:28N 51°55' E 003°31'0 0.0
2018-Jun-24 11:55N 51°55' E 003°31'0 0.0
2018-Jun-24 11:30N 51°55' E 003°31'0 0.3
2018-Jun-24 11:00N 51°55' E 003°31'3 6.9
2018-Jun-24 10:30N 51°55' E 003°25'510.6
2018-Jun-24 10:00N 51°54' E 003°17'510.6
2018-Jun-24 09:30N 51°52' E 003°09'510.3
2018-Jun-24 09:00N 51°50' E 003°01'510.0
2018-Jun-24 08:30N 51°49' E 002°53'5 9.7
2018-Jun-24 08:00N 51°47' E 002°46'5 9.3
2018-Jun-24 07:30N 51°45' E 002°39'4 8.8
2018-Jun-24 07:00N 51°42' E 002°34'4 8.6
2018-Jun-24 06:30N 51°39' E 002°29'4 8.3
2018-Jun-24 06:00N 51°36' E 002°25'4 8.1
2018-Jun-24 05:30N 51°33' E 002°20'4 7.9
2018-Jun-24 05:00N 51°30' E 002°16'4 8.0
2018-Jun-24 04:30N 51°27' E 002°12'4 8.3
2018-Jun-24 04:00N 51°24' E 002°08'4 8.8
2018-Jun-24 03:30N 51°19' E 002°06'5 9.0
2018-Jun-24 03:00N 51°15' E 002°04'4 8.7
2018-Jun-24 02:30N 51°12' E 001°59'5 9.2
2018-Jun-24 02:01N 51°09' E 001°53'5 9.3
2018-Jun-24 01:30N 51°07' E 001°47'5 9.6
2018-Jun-24 01:00N 51°04' E 001°42'5 9.8
2018-Jun-24 00:30N 50°60' E 001°36'510.3
2018-Jun-24 00:00N 50°56' E 001°31'510.9
2018-Jun-23 23:30N 50°51' E 001°26'510.8
2018-Jun-23 23:00N 50°46' E 001°24'510.6
2018-Jun-23 22:31N 50°41' E 001°20'510.4
2018-Jun-23 22:00N 50°38' E 001°14'510.5
2018-Jun-23 21:30N 50°34' E 001°08'510.3
2018-Jun-23 21:00N 50°31' E 001°02'510.5
2018-Jun-23 20:30N 50°27' E 000°56'510.5
2018-Jun-23 20:00N 50°23' E 000°51'510.6
2018-Jun-23 19:30N 50°20' E 000°45'510.7
2018-Jun-23 19:00N 50°16' E 000°39'511.0
2018-Jun-23 18:30N 50°11' E 000°34'611.3
2018-Jun-23 18:00N 50°07' E 000°28'611.6
2018-Jun-23 17:30N 50°03' E 000°22'611.9
2018-Jun-23 17:00N 49°58' E 000°16'611.8
2018-Jun-23 16:30N 49°53' E 000°11'611.5
2018-Jun-23 16:00N 49°49' E 000°05'510.9
2018-Jun-23 15:30N 49°45' W 000°01'5 9.9
2018-Jun-23 15:00N 49°40' W 000°04'5 9.5
2018-Jun-23 14:30N 49°36' W 000°05'4 8.5
2018-Jun-23 14:00N 49°32' W 000°04'612.5
2018-Jun-23 13:30N 49°29' E 000°05'3 5.6
2018-Jun-23 12:59N 49°28' E 000°09'0 0.0
2018-Jun-23 12:29N 49°28' E 000°09'0 0.0
2018-Jun-23 11:59N 49°28' E 000°09'0 0.0
2018-Jun-23 11:29N 49°28' E 000°09'0 0.0
2018-Jun-23 10:59N 49°28' E 000°09'0 0.0
2018-Jun-23 10:29N 49°28' E 000°09'0 0.0
2018-Jun-23 09:56N 49°28' E 000°09'0 0.0
2018-Jun-23 09:29N 49°28' E 000°09'0 0.0
2018-Jun-23 08:59N 49°28' E 000°09'0 0.0
2018-Jun-23 08:29N 49°28' E 000°09'0 0.0
2018-Jun-23 07:59N 49°28' E 000°09'0 0.0
2018-Jun-23 07:29N 49°28' E 000°09'0 0.0
2018-Jun-23 06:59N 49°28' E 000°09'0 0.0
2018-Jun-23 06:29N 49°28' E 000°09'0 0.0
2018-Jun-23 05:59N 49°28' E 000°09'0 0.0
2018-Jun-23 05:29N 49°28' E 000°09'0 0.0
2018-Jun-23 04:59N 49°28' E 000°09'0 0.0
2018-Jun-23 04:29N 49°28' E 000°09'0 0.0
2018-Jun-23 03:59N 49°28' E 000°09'0 0.0
2018-Jun-23 03:29N 49°28' E 000°09'0 0.0
2018-Jun-23 02:59N 49°28' E 000°09'0 0.0
2018-Jun-23 02:29N 49°28' E 000°09'0 0.0
2018-Jun-23 01:59N 49°28' E 000°09'0 0.0
2018-Jun-23 01:29N 49°28' E 000°09'0 0.0
2018-Jun-23 00:59N 49°28' E 000°09'0 0.0
2018-Jun-23 00:29N 49°28' E 000°09'0 0.0
2018-Jun-22 23:59N 49°28' E 000°09'0 0.0
2018-Jun-22 23:29N 49°28' E 000°09'0 0.0
2018-Jun-22 22:59N 49°28' E 000°09'0 0.0
2018-Jun-22 22:29N 49°28' E 000°09'0 0.0
2018-Jun-22 21:59N 49°28' E 000°09'0 0.0
2018-Jun-22 21:29N 49°28' E 000°09'0 0.0
2018-Jun-22 20:59N 49°28' E 000°09'0 0.0
2018-Jun-22 20:29N 49°28' E 000°09'0 0.0
2018-Jun-22 19:59N 49°28' E 000°09'0 0.0
2018-Jun-22 19:29N 49°28' E 000°09'0 0.0
2018-Jun-22 18:59N 49°28' E 000°09'0 0.0
2018-Jun-22 18:29N 49°28' E 000°09'0 0.0
2018-Jun-22 17:59N 49°28' E 000°09'0 0.0
2018-Jun-22 17:29N 49°28' E 000°09'0 0.0
2018-Jun-22 16:59N 49°28' E 000°09'0 0.0
2018-Jun-22 16:29N 49°28' E 000°09'0 0.0
2018-Jun-22 15:59N 49°28' E 000°09'0 0.0
2018-Jun-22 15:29N 49°28' E 000°09'0 0.0
2018-Jun-22 14:59N 49°28' E 000°09'0 0.0
2018-Jun-22 14:29N 49°28' E 000°09'0 0.0
2018-Jun-22 13:59N 49°28' E 000°09'0 0.0
2018-Jun-22 13:29N 49°28' E 000°09'0 0.0
2018-Jun-22 12:59N 49°28' E 000°09'0 0.0
2018-Jun-22 12:29N 49°28' E 000°09'0 0.0
2018-Jun-22 11:59N 49°28' E 000°09'0 0.0
2018-Jun-22 11:29N 49°28' E 000°09'0 0.0
2018-Jun-22 10:59N 49°28' E 000°09'0 0.0
2018-Jun-22 10:26N 49°28' E 000°09'0 0.0
2018-Jun-22 09:59N 49°28' E 000°09'0 0.0
2018-Jun-22 09:29N 49°28' E 000°09'0 0.0
2018-Jun-22 08:59N 49°28' E 000°09'0 0.0
2018-Jun-22 08:29N 49°28' E 000°09'0 0.0
2018-Jun-22 07:59N 49°28' E 000°09'0 0.0
2018-Jun-22 07:29N 49°28' E 000°09'0 0.0
2018-Jun-22 06:59N 49°28' E 000°09'0 0.3
2018-Jun-22 06:30N 49°28' E 000°09'4 7.6
2018-Jun-22 06:01N 49°29' E 000°04'612.3
2018-Jun-22 05:30N 49°34' W 000°03'714.5
2018-Jun-22 05:01N 49°41' W 000°04'917.9
2018-Jun-22 04:31N 49°49' E 000°03'918.2
2018-Jun-22 04:01N 49°56' E 000°11'918.3
2018-Jun-22 03:30N 50°04' E 000°18'2518.6
2018-Jun-22 02:08N 50°27' E 000°33'319.9
2018-Jun-22 02:00N 50°30' E 000°32'817.3
2018-Jun-22 01:31N 50°37' E 000°40'1020.3
2018-Jun-22 01:00N 50°43' E 000°53'1020.9
2018-Jun-22 00:30N 50°49' E 001°06'1121.0
2018-Jun-22 00:00N 50°56' E 001°19'1121.2
2018-Jun-21 23:30N 51°03' E 001°31'1020.7
2018-Jun-21 23:00N 51°11' E 001°42'1019.3
2018-Jun-21 22:30N 51°19' E 001°49'1019.1
2018-Jun-21 22:01N 51°29' E 001°53'1019.3
2018-Jun-21 21:31N 51°37' E 001°47'918.7
2018-Jun-21 21:01N 51°47' E 001°44'5 9.6
2018-Jun-21 20:30N 51°50' E 001°39'917.8
2018-Jun-21 20:01N 51°44' E 001°30'918.6
2018-Jun-21 19:30N 51°37' E 001°20'917.4
2018-Jun-21 19:01N 51°32' E 001°08'815.5
2018-Jun-21 18:31N 51°29' E 000°57'713.2
2018-Jun-21 18:00N 51°29' E 000°46'4 7.0
2018-Jun-21 17:30N 51°30' E 000°41'3 6.5
2018-Jun-21 17:01N 51°30' E 000°36'3 6.7
2018-Jun-21 16:31N 51°30' E 000°30'0 0.6
2018-Jun-21 16:01N 51°30' E 000°30'0 0.0
2018-Jun-21 15:31N 51°30' E 000°30'0 0.0
2018-Jun-21 15:01N 51°30' E 000°30'0 0.0
2018-Jun-21 14:31N 51°30' E 000°30'0 0.0
2018-Jun-21 14:01N 51°30' E 000°30'0 0.0
2018-Jun-21 13:31N 51°30' E 000°30'0 0.0
2018-Jun-21 13:01N 51°30' E 000°30'0 0.0
2018-Jun-21 12:31N 51°30' E 000°30'0 0.0
2018-Jun-21 12:01N 51°30' E 000°30'0 0.0
2018-Jun-21 11:31N 51°30' E 000°30'0 0.0
2018-Jun-21 11:01N 51°30' E 000°30'0 0.0
2018-Jun-21 10:31N 51°30' E 000°30'0 0.0
2018-Jun-21 10:01N 51°30' E 000°30'0 0.0
2018-Jun-21 09:31N 51°30' E 000°30'0 0.0
2018-Jun-21 09:01N 51°30' E 000°30'0 0.0
2018-Jun-21 08:30N 51°30' E 000°30'0 0.0
2018-Jun-21 08:00N 51°30' E 000°30'0 0.0
2018-Jun-21 07:30N 51°30' E 000°30'0 0.0
2018-Jun-21 07:00N 51°30' E 000°30'0 0.0
2018-Jun-21 06:31N 51°30' E 000°30'0 0.0
2018-Jun-21 06:00N 51°30' E 000°30'0 0.0
2018-Jun-21 05:31N 51°30' E 000°30'0 0.0
2018-Jun-21 05:00N 51°30' E 000°30'0 0.0
2018-Jun-21 04:30N 51°30' E 000°30'0 0.0
2018-Jun-21 04:01N 51°30' E 000°30'0 0.0
2018-Jun-21 03:31N 51°30' E 000°30'0 0.0
2018-Jun-21 03:01N 51°30' E 000°30'0 0.0
2018-Jun-21 02:30N 51°30' E 000°30'0 0.0
2018-Jun-21 02:01N 51°30' E 000°30'0 0.0
2018-Jun-21 01:30N 51°30' E 000°30'0 0.0
2018-Jun-21 01:01N 51°30' E 000°30'0 0.0
2018-Jun-21 00:31N 51°30' E 000°30'0 0.0
2018-Jun-21 00:00N 51°30' E 000°30'0 0.0
2018-Jun-20 23:30N 51°30' E 000°30'0 0.0
2018-Jun-20 23:00N 51°30' E 000°30'0 0.0
2018-Jun-20 22:30N 51°30' E 000°30'0 0.0
2018-Jun-20 22:01N 51°30' E 000°30'0 0.0
2018-Jun-20 21:31N 51°30' E 000°30'1 1.0
2018-Jun-20 21:01N 51°30' E 000°31'3 5.5
2018-Jun-20 20:30N 51°30' E 000°35'612.7
2018-Jun-20 20:00N 51°29' E 000°45'815.6
2018-Jun-20 19:30N 51°29' E 000°58'917.3
2018-Jun-20 19:00N 51°33' E 001°10'817.0
2018-Jun-20 18:30N 51°38' E 001°21'816.8
2018-Jun-20 18:00N 51°44' E 001°30'815.2
2018-Jun-20 17:30N 51°51' E 001°35'4 8.7
2018-Jun-20 17:00N 51°52' E 001°42'2 3.6
2018-Jun-20 16:30N 51°51' E 001°45'3 5.5
2018-Jun-20 16:00N 51°49' E 001°47'3 6.6
2018-Jun-20 15:30N 51°46' E 001°48'3 6.9
2018-Jun-20 15:00N 51°42' E 001°48'4 7.5
2018-Jun-20 14:30N 51°39' E 001°49'4 7.9
2018-Jun-20 14:00N 51°35' E 001°48'4 8.0
2018-Jun-20 13:30N 51°31' E 001°47'4 7.9
2018-Jun-20 13:00N 51°27' E 001°46'815.7
2018-Jun-20 12:30N 51°19' E 001°43'816.4
2018-Jun-20 12:00N 51°11' E 001°39'713.5
2018-Jun-20 11:30N 51°05' E 001°39'816.9
2018-Jun-20 11:00N 50°58' E 001°31'817.0
2018-Jun-20 10:30N 50°50' E 001°25'917.3
2018-Jun-20 10:00N 50°42' E 001°20'917.8
2018-Jun-20 09:30N 50°36' E 001°10'917.9
2018-Jun-20 09:00N 50°30' E 000°59'917.9
2018-Jun-20 08:30N 50°28' E 000°46'1018.3
2018-Jun-20 07:59N 50°25' E 000°31'1018.4
2018-Jun-20 07:28N 50°23' E 000°17'1018.2
2018-Jun-20 06:56N 50°21' E 000°02'1018.4
2018-Jun-20 06:22N 50°19' W 000°14'818.2
2018-Jun-20 05:57N 50°17' W 000°26'818.1
2018-Jun-20 05:30N 50°16' W 000°38'918.4
2018-Jun-20 05:00N 50°15' W 000°52'918.5
2018-Jun-20 04:30N 50°15' W 001°07'1019.3
2018-Jun-20 04:00N 50°20' W 001°20'1019.6
2018-Jun-20 03:30N 50°22' W 001°35'1020.5
2018-Jun-20 03:00N 50°23' W 001°51'1121.3
2018-Jun-20 02:28N 50°23' W 002°09'1021.6
2018-Jun-20 02:01N 50°23' W 002°25'1121.2
2018-Jun-20 01:30N 50°24' W 002°41'1020.9
2018-Jun-20 01:00N 50°24' W 002°58'1020.0
2018-Jun-20 00:30N 50°25' W 003°13'815.4
2018-Jun-20 00:00N 50°24' W 003°25'815.6
2018-Jun-19 23:30N 50°16' W 003°28'1019.9
2018-Jun-19 23:00N 50°08' W 003°35'1020.2
2018-Jun-19 22:29N 50°04' W 003°50'1020.1
2018-Jun-19 22:01N 49°59' W 004°03'1020.0
2018-Jun-19 21:31N 49°53' W 004°16'1119.7
2018-Jun-19 20:56N 49°48' W 004°32'819.7
2018-Jun-19 20:30N 49°45' W 004°44'1019.5
2018-Jun-19 19:59N 49°40' W 004°58'919.4
2018-Jun-19 19:30N 49°38' W 005°12'3319.0
2018-Jun-19 17:47N 49°37' W 006°02'  
2018-Jun-15 18:00N 42°12' W 046°36'   220 / 311012.8 5.4 24.610.220.8
Track history (hours):
 
Tides and Currents Weather Stations Pressure Air Temp Water Temp Dewpoint Dewpoint Depression Visibility Wind Speed Wind Dir Waves Ship Positions

Maersk Dortmund

Last reported at 2018-Jun-25 14:58 UTC. Time now 2018-Jun-25 15:19 UTC.
Position N 51°55' E 003°31'.

Type: Ship (hazmat cat A). MMSI: 2157100.

Date/timePositionNaut miles runAvg speedWind from/ knotsBaromVisibWave heightAir tempDewpointWater temp
2018-Jun-25 14:58N 51°55' E 003°31'0 0.0
2018-Jun-25 14:28N 51°55' E 003°31'0 0.0
2018-Jun-25 13:58N 51°55' E 003°31'0 0.0
2018-Jun-25 13:28N 51°55' E 003°31'0 0.0
2018-Jun-25 12:55N 51°55' E 003°31'0 0.0
2018-Jun-25 12:13N 51°55' E 003°31'0 0.0
2018-Jun-25 11:58N 51°55' E 003°31'0 0.0
2018-Jun-25 11:10N 51°55' E 003°31'0 0.1
2018-Jun-25 10:52N 51°55' E 003°31'0 0.2
2018-Jun-25 10:16N 51°55' E 003°31'0 0.3
2018-Jun-25 09:52N 51°55' E 003°30'0 0.1
2018-Jun-25 09:28N 51°55' E 003°30'0 0.1
2018-Jun-25 08:58N 51°55' E 003°30'0 0.0
2018-Jun-25 08:28N 51°55' E 003°30'0 0.0
2018-Jun-25 07:49N 51°55' E 003°30'0 0.0
2018-Jun-25 07:28N 51°55' E 003°30'0 0.0
2018-Jun-25 06:58N 51°55' E 003°30'0 0.0
2018-Jun-25 06:28N 51°55' E 003°30'0 0.0
2018-Jun-25 05:58N 51°55' E 003°30'0 0.0
2018-Jun-25 05:25N 51°55' E 003°30'0 0.0
2018-Jun-25 04:46N 51°55' E 003°30'0 0.0
2018-Jun-25 04:28N 51°55' E 003°30'0 0.0
2018-Jun-25 03:49N 51°55' E 003°30'0 0.3
2018-Jun-25 03:28N 51°55' E 003°31'0 0.2
2018-Jun-25 02:49N 51°55' E 003°31'0 0.0
2018-Jun-25 02:13N 51°55' E 003°31'0 0.1
2018-Jun-25 01:58N 51°55' E 003°31'0 0.0
2018-Jun-25 01:25N 51°55' E 003°31'0 0.0
2018-Jun-25 00:52N 51°55' E 003°31'0 0.0
2018-Jun-25 00:28N 51°55' E 003°31'0 0.0
2018-Jun-24 23:55N 51°55' E 003°31'0 0.0
2018-Jun-24 23:25N 51°55' E 003°31'0 0.0
2018-Jun-24 22:55N 51°55' E 003°31'0 0.2
2018-Jun-24 22:19N 51°55' E 003°31'0 0.2
2018-Jun-24 21:58N 51°55' E 003°31'0 0.1
2018-Jun-24 21:19N 51°55' E 003°30'0 0.1
2018-Jun-24 20:58N 51°55' E 003°30'0 0.0
2018-Jun-24 20:22N 51°55' E 003°30'0 0.0
2018-Jun-24 19:49N 51°55' E 003°30'0 0.0
2018-Jun-24 19:25N 51°55' E 003°30'0 0.0
2018-Jun-24 18:52N 51°55' E 003°30'0 0.0
2018-Jun-24 18:28N 51°55' E 003°30'0 0.0
2018-Jun-24 17:46N 51°55' E 003°30'0 0.0
2018-Jun-24 17:28N 51°55' E 003°30'0 0.0
2018-Jun-24 16:58N 51°55' E 003°30'0 0.0
2018-Jun-24 16:25N 51°55' E 003°30'0 0.0
2018-Jun-24 15:58N 51°55' E 003°30'0 0.1
2018-Jun-24 15:25N 51°55' E 003°30'0 0.0
2018-Jun-24 14:52N 51°55' E 003°30'0 0.2
2018-Jun-24 14:19N 51°55' E 003°31'0 0.2
2018-Jun-24 13:52N 51°55' E 003°31'0 0.0
2018-Jun-24 13:25N 51°55' E 003°31'0 0.0
2018-Jun-24 12:58N 51°55' E 003°31'0 0.0
2018-Jun-24 12:28N 51°55' E 003°31'0 0.0
2018-Jun-24 11:55N 51°55' E 003°31'0 0.0
2018-Jun-24 11:30N 51°55' E 003°31'0 0.3
2018-Jun-24 11:00N 51°55' E 003°31'3 6.9
2018-Jun-24 10:30N 51°55' E 003°25'510.6
2018-Jun-24 10:00N 51°54' E 003°17'510.6
2018-Jun-24 09:30N 51°52' E 003°09'510.3
2018-Jun-24 09:00N 51°50' E 003°01'510.0
2018-Jun-24 08:30N 51°49' E 002°53'5 9.7
2018-Jun-24 08:00N 51°47' E 002°46'5 9.3
2018-Jun-24 07:30N 51°45' E 002°39'4 8.8
2018-Jun-24 07:00N 51°42' E 002°34'4 8.6
2018-Jun-24 06:30N 51°39' E 002°29'4 8.3
2018-Jun-24 06:00N 51°36' E 002°25'4 8.1
2018-Jun-24 05:30N 51°33' E 002°20'4 7.9
2018-Jun-24 05:00N 51°30' E 002°16'4 8.0
2018-Jun-24 04:30N 51°27' E 002°12'4 8.3
2018-Jun-24 04:00N 51°24' E 002°08'4 8.8
2018-Jun-24 03:30N 51°19' E 002°06'5 9.0
2018-Jun-24 03:00N 51°15' E 002°04'4 8.7
2018-Jun-24 02:30N 51°12' E 001°59'5 9.2
2018-Jun-24 02:01N 51°09' E 001°53'5 9.3
2018-Jun-24 01:30N 51°07' E 001°47'5 9.6
2018-Jun-24 01:00N 51°04' E 001°42'5 9.8
2018-Jun-24 00:30N 50°60' E 001°36'510.3
2018-Jun-24 00:00N 50°56' E 001°31'510.9
2018-Jun-23 23:30N 50°51' E 001°26'510.8
2018-Jun-23 23:00N 50°46' E 001°24'510.6
2018-Jun-23 22:31N 50°41' E 001°20'510.4
2018-Jun-23 22:00N 50°38' E 001°14'510.5
2018-Jun-23 21:30N 50°34' E 001°08'510.3
2018-Jun-23 21:00N 50°31' E 001°02'510.5
2018-Jun-23 20:30N 50°27' E 000°56'510.5
2018-Jun-23 20:00N 50°23' E 000°51'510.6
2018-Jun-23 19:30N 50°20' E 000°45'510.7
2018-Jun-23 19:00N 50°16' E 000°39'511.0
2018-Jun-23 18:30N 50°11' E 000°34'611.3
2018-Jun-23 18:00N 50°07' E 000°28'611.6
2018-Jun-23 17:30N 50°03' E 000°22'611.9
2018-Jun-23 17:00N 49°58' E 000°16'611.8
2018-Jun-23 16:30N 49°53' E 000°11'611.5
2018-Jun-23 16:00N 49°49' E 000°05'510.9
2018-Jun-23 15:30N 49°45' W 000°01'5 9.9
2018-Jun-23 15:00N 49°40' W 000°04'5 9.5
2018-Jun-23 14:30N 49°36' W 000°05'4 8.5
2018-Jun-23 14:00N 49°32' W 000°04'612.5
2018-Jun-23 13:30N 49°29' E 000°05'3 5.6
2018-Jun-23 12:59N 49°28' E 000°09'0 0.0
2018-Jun-23 12:29N 49°28' E 000°09'0 0.0
2018-Jun-23 11:59N 49°28' E 000°09'0 0.0
2018-Jun-23 11:29N 49°28' E 000°09'0 0.0
2018-Jun-23 10:59N 49°28' E 000°09'0 0.0
2018-Jun-23 10:29N 49°28' E 000°09'0 0.0
2018-Jun-23 09:56N 49°28' E 000°09'0 0.0
2018-Jun-23 09:29N 49°28' E 000°09'0 0.0
2018-Jun-23 08:59N 49°28' E 000°09'0 0.0
2018-Jun-23 08:29N 49°28' E 000°09'0 0.0
2018-Jun-23 07:59N 49°28' E 000°09'0 0.0
2018-Jun-23 07:29N 49°28' E 000°09'0 0.0
2018-Jun-23 06:59N 49°28' E 000°09'0 0.0
2018-Jun-23 06:29N 49°28' E 000°09'0 0.0
2018-Jun-23 05:59N 49°28' E 000°09'0 0.0
2018-Jun-23 05:29N 49°28' E 000°09'0 0.0
2018-Jun-23 04:59N 49°28' E 000°09'0 0.0
2018-Jun-23 04:29N 49°28' E 000°09'0 0.0
2018-Jun-23 03:59N 49°28' E 000°09'0 0.0
2018-Jun-23 03:29N 49°28' E 000°09'0 0.0
2018-Jun-23 02:59N 49°28' E 000°09'0 0.0
2018-Jun-23 02:29N 49°28' E 000°09'0 0.0
2018-Jun-23 01:59N 49°28' E 000°09'0 0.0
2018-Jun-23 01:29N 49°28' E 000°09'0 0.0
2018-Jun-23 00:59N 49°28' E 000°09'0 0.0
2018-Jun-23 00:29N 49°28' E 000°09'0 0.0
2018-Jun-22 23:59N 49°28' E 000°09'0 0.0
2018-Jun-22 23:29N 49°28' E 000°09'0 0.0
2018-Jun-22 22:59N 49°28' E 000°09'0 0.0
2018-Jun-22 22:29N 49°28' E 000°09'0 0.0
2018-Jun-22 21:59N 49°28' E 000°09'0 0.0
2018-Jun-22 21:29N 49°28' E 000°09'0 0.0
2018-Jun-22 20:59N 49°28' E 000°09'0 0.0
2018-Jun-22 20:29N 49°28' E 000°09'0 0.0
2018-Jun-22 19:59N 49°28' E 000°09'0 0.0
2018-Jun-22 19:29N 49°28' E 000°09'0 0.0
2018-Jun-22 18:59N 49°28' E 000°09'0 0.0
2018-Jun-22 18:29N 49°28' E 000°09'0 0.0
2018-Jun-22 17:59N 49°28' E 000°09'0 0.0
2018-Jun-22 17:29N 49°28' E 000°09'0 0.0
2018-Jun-22 16:59N 49°28' E 000°09'0 0.0
2018-Jun-22 16:29N 49°28' E 000°09'0 0.0
2018-Jun-22 15:59N 49°28' E 000°09'0 0.0
2018-Jun-22 15:29N 49°28' E 000°09'0 0.0
2018-Jun-22 14:59N 49°28' E 000°09'0 0.0
2018-Jun-22 14:29N 49°28' E 000°09'0 0.0
2018-Jun-22 13:59N 49°28' E 000°09'0 0.0
2018-Jun-22 13:29N 49°28' E 000°09'0 0.0
2018-Jun-22 12:59N 49°28' E 000°09'0 0.0
2018-Jun-22 12:29N 49°28' E 000°09'0 0.0
2018-Jun-22 11:59N 49°28' E 000°09'0 0.0
2018-Jun-22 11:29N 49°28' E 000°09'0 0.0
2018-Jun-22 10:59N 49°28' E 000°09'0 0.0
2018-Jun-22 10:26N 49°28' E 000°09'0 0.0
2018-Jun-22 09:59N 49°28' E 000°09'0 0.0
2018-Jun-22 09:29N 49°28' E 000°09'0 0.0
2018-Jun-22 08:59N 49°28' E 000°09'0 0.0
2018-Jun-22 08:29N 49°28' E 000°09'0 0.0
2018-Jun-22 07:59N 49°28' E 000°09'0 0.0
2018-Jun-22 07:29N 49°28' E 000°09'0 0.0
2018-Jun-22 06:59N 49°28' E 000°09'0 0.3
2018-Jun-22 06:30N 49°28' E 000°09'4 7.6
2018-Jun-22 06:01N 49°29' E 000°04'612.3
2018-Jun-22 05:30N 49°34' W 000°03'714.5
2018-Jun-22 05:01N 49°41' W 000°04'917.9
2018-Jun-22 04:31N 49°49' E 000°03'918.2
2018-Jun-22 04:01N 49°56' E 000°11'918.3
2018-Jun-22 03:30N 50°04' E 000°18'2518.6
2018-Jun-22 02:08N 50°27' E 000°33'319.9
2018-Jun-22 02:00N 50°30' E 000°32'817.3
2018-Jun-22 01:31N 50°37' E 000°40'1020.3
2018-Jun-22 01:00N 50°43' E 000°53'1020.9
2018-Jun-22 00:30N 50°49' E 001°06'1121.0
2018-Jun-22 00:00N 50°56' E 001°19'1121.2
2018-Jun-21 23:30N 51°03' E 001°31'1020.7
2018-Jun-21 23:00N 51°11' E 001°42'1019.3
2018-Jun-21 22:30N 51°19' E 001°49'1019.1
2018-Jun-21 22:01N 51°29' E 001°53'1019.3
2018-Jun-21 21:31N 51°37' E 001°47'918.7
2018-Jun-21 21:01N 51°47' E 001°44'5 9.6
2018-Jun-21 20:30N 51°50' E 001°39'917.8
2018-Jun-21 20:01N 51°44' E 001°30'918.6
2018-Jun-21 19:30N 51°37' E 001°20'917.4
2018-Jun-21 19:01N 51°32' E 001°08'815.5
2018-Jun-21 18:31N 51°29' E 000°57'713.2
2018-Jun-21 18:00N 51°29' E 000°46'4 7.0
2018-Jun-21 17:30N 51°30' E 000°41'3 6.5
2018-Jun-21 17:01N 51°30' E 000°36'3 6.7
2018-Jun-21 16:31N 51°30' E 000°30'0 0.6
2018-Jun-21 16:01N 51°30' E 000°30'0 0.0
2018-Jun-21 15:31N 51°30' E 000°30'0 0.0
2018-Jun-21 15:01N 51°30' E 000°30'0 0.0
2018-Jun-21 14:31N 51°30' E 000°30'0 0.0
2018-Jun-21 14:01N 51°30' E 000°30'0 0.0
2018-Jun-21 13:31N 51°30' E 000°30'0 0.0
2018-Jun-21 13:01N 51°30' E 000°30'0 0.0
2018-Jun-21 12:31N 51°30' E 000°30'0 0.0
2018-Jun-21 12:01N 51°30' E 000°30'0 0.0
2018-Jun-21 11:31N 51°30' E 000°30'0 0.0
2018-Jun-21 11:01N 51°30' E 000°30'0 0.0
2018-Jun-21 10:31N 51°30' E 000°30'0 0.0
2018-Jun-21 10:01N 51°30' E 000°30'0 0.0
2018-Jun-21 09:31N 51°30' E 000°30'0 0.0
2018-Jun-21 09:01N 51°30' E 000°30'0 0.0
2018-Jun-21 08:30N 51°30' E 000°30'0 0.0
2018-Jun-21 08:00N 51°30' E 000°30'0 0.0
2018-Jun-21 07:30N 51°30' E 000°30'0 0.0
2018-Jun-21 07:00N 51°30' E 000°30'0 0.0
2018-Jun-21 06:31N 51°30' E 000°30'0 0.0
2018-Jun-21 06:00N 51°30' E 000°30'0 0.0
2018-Jun-21 05:31N 51°30' E 000°30'0 0.0
2018-Jun-21 05:00N 51°30' E 000°30'0 0.0
2018-Jun-21 04:30N 51°30' E 000°30'0 0.0
2018-Jun-21 04:01N 51°30' E 000°30'0 0.0
2018-Jun-21 03:31N 51°30' E 000°30'0 0.0
2018-Jun-21 03:01N 51°30' E 000°30'0 0.0
2018-Jun-21 02:30N 51°30' E 000°30'0 0.0
2018-Jun-21 02:01N 51°30' E 000°30'0 0.0
2018-Jun-21 01:30N 51°30' E 000°30'0 0.0
2018-Jun-21 01:01N 51°30' E 000°30'0 0.0
2018-Jun-21 00:31N 51°30' E 000°30'0 0.0
2018-Jun-21 00:00N 51°30' E 000°30'0 0.0
2018-Jun-20 23:30N 51°30' E 000°30'0 0.0
2018-Jun-20 23:00N 51°30' E 000°30'0 0.0
2018-Jun-20 22:30N 51°30' E 000°30'0 0.0
2018-Jun-20 22:01N 51°30' E 000°30'0 0.0
2018-Jun-20 21:31N 51°30' E 000°30'1 1.0
2018-Jun-20 21:01N 51°30' E 000°31'3 5.5
2018-Jun-20 20:30N 51°30' E 000°35'612.7
2018-Jun-20 20:00N 51°29' E 000°45'815.6
2018-Jun-20 19:30N 51°29' E 000°58'917.3
2018-Jun-20 19:00N 51°33' E 001°10'817.0
2018-Jun-20 18:30N 51°38' E 001°21'816.8
2018-Jun-20 18:00N 51°44' E 001°30'815.2
2018-Jun-20 17:30N 51°51' E 001°35'4 8.7
2018-Jun-20 17:00N 51°52' E 001°42'2 3.6
2018-Jun-20 16:30N 51°51' E 001°45'3 5.5
2018-Jun-20 16:00N 51°49' E 001°47'3 6.6
2018-Jun-20 15:30N 51°46' E 001°48'3 6.9
2018-Jun-20 15:00N 51°42' E 001°48'4 7.5
2018-Jun-20 14:30N 51°39' E 001°49'4 7.9
2018-Jun-20 14:00N 51°35' E 001°48'4 8.0
2018-Jun-20 13:30N 51°31' E 001°47'4 7.9
2018-Jun-20 13:00N 51°27' E 001°46'815.7
2018-Jun-20 12:30N 51°19' E 001°43'816.4
2018-Jun-20 12:00N 51°11' E 001°39'713.5
2018-Jun-20 11:30N 51°05' E 001°39'816.9
2018-Jun-20 11:00N 50°58' E 001°31'817.0
2018-Jun-20 10:30N 50°50' E 001°25'917.3
2018-Jun-20 10:00N 50°42' E 001°20'917.8
2018-Jun-20 09:30N 50°36' E 001°10'917.9
2018-Jun-20 09:00N 50°30' E 000°59'917.9
2018-Jun-20 08:30N 50°28' E 000°46'1018.3
2018-Jun-20 07:59N 50°25' E 000°31'1018.4
2018-Jun-20 07:28N 50°23' E 000°17'1018.2
2018-Jun-20 06:56N 50°21' E 000°02'1018.4
2018-Jun-20 06:22N 50°19' W 000°14'818.2
2018-Jun-20 05:57N 50°17' W 000°26'818.1
2018-Jun-20 05:30N 50°16' W 000°38'918.4
2018-Jun-20 05:00N 50°15' W 000°52'918.5
2018-Jun-20 04:30N 50°15' W 001°07'1019.3
2018-Jun-20 04:00N 50°20' W 001°20'1019.6
2018-Jun-20 03:30N 50°22' W 001°35'1020.5
2018-Jun-20 03:00N 50°23' W 001°51'1121.3
2018-Jun-20 02:28N 50°23' W 002°09'1021.6
2018-Jun-20 02:01N 50°23' W 002°25'1121.2
2018-Jun-20 01:30N 50°24' W 002°41'1020.9
2018-Jun-20 01:00N 50°24' W 002°58'1020.0
2018-Jun-20 00:30N 50°25' W 003°13'815.4
2018-Jun-20 00:00N 50°24' W 003°25'815.6
2018-Jun-19 23:30N 50°16' W 003°28'1019.9
2018-Jun-19 23:00N 50°08' W 003°35'1020.2
2018-Jun-19 22:29N 50°04' W 003°50'1020.1
2018-Jun-19 22:01N 49°59' W 004°03'1020.0
2018-Jun-19 21:31N 49°53' W 004°16'1119.7
2018-Jun-19 20:56N 49°48' W 004°32'819.7
2018-Jun-19 20:30N 49°45' W 004°44'1019.5
2018-Jun-19 19:59N 49°40' W 004°58'919.4
2018-Jun-19 19:30N 49°38' W 005°12'3319.0
2018-Jun-19 17:47N 49°37' W 006°02'  
2018-Jun-15 18:00N 42°12' W 046°36'   220 / 311012.8 5.4 24.610.220.8

Dump ship's entire track history